This is the latest recevied weather packets stored in our database for station/object KF5WCW-1. If no packets are shown the sender has not sent any weather packets the latest 1 day(s).
| Time | Temp. | Humidity | Pressure | Rain* | Wind** | Luminosity | Snow |
|---|---|---|---|---|---|---|---|
| 1836274789 | 16.11° C | 49% | 0 hPa | 0 mm | 0.45 m/s, 299° | - | - |
| 1836274489 | 16.67° C | 47% | 0 hPa | 0 mm | 3.58 m/s, 272° | - | - |
| 1836274339 | 15.56° C | 47% | 0 hPa | 0 mm | 1.79 m/s, 257° | - | - |
| 1836274189 | 17.22° C | 43% | 0 hPa | 0 mm | 1.79 m/s, 289° | - | - |
| 1836273889 | 17.22° C | 42% | 0 hPa | 0 mm | 2.68 m/s, 292° | - | - |
| 1778031068 | 6.67° C | 67% | 0 hPa | 0 mm | 2.24 m/s, 92° | - | - |
| 1778030768 | 6.67° C | 66% | 0 hPa | 0 mm | 3.58 m/s, 25° | - | - |
| 1778030468 | 6.67° C | 65% | 0 hPa | 0 mm | 6.26 m/s, 29° | - | - |
| 1778030168 | 7.22° C | 65% | 0 hPa | 0 mm | 2.24 m/s, 9° | - | - |
| 1778029868 | 7.22° C | 64% | 0 hPa | 0 mm | 2.68 m/s, 33° | - | - |
| 1778029568 | 7.78° C | 63% | 0 hPa | 0 mm | 5.36 m/s, 49° | - | - |
| 1778029268 | 8.33° C | 62% | 0 hPa | 0 mm | 2.68 m/s, 165° | - | - |
| 1778028968 | 8.33° C | 61% | 0 hPa | 0 mm | 4.47 m/s, 52° | - | - |
| 1778028668 | 8.89° C | 58% | 0 hPa | 0 mm | 6.71 m/s, 39° | - | - |
| 1778028368 | 9.44° C | 56% | 0 hPa | 0 mm | 7.15 m/s, 21° | - | - |
| 1778028068 | 11.11° C | 50% | 0 hPa | 0 mm | 6.71 m/s, 35° | - | - |
| 1778027768 | 12.78° C | 44% | 0 hPa | 0 mm | 6.26 m/s, 300° | - | - |
| 1778027468 | 13.89° C | 30% | 0 hPa | 0 mm | 0 m/s | - | - |
| 1778027169 | 13.89° C | 30% | 0 hPa | 0 mm | 2.68 m/s, 330° | - | - |
| 1778026869 | 13.89° C | 30% | 0 hPa | 0 mm | 2.24 m/s, 309° | - | - |
| 1778026569 | 13.33° C | 31% | 0 hPa | 0 mm | 2.68 m/s, 286° | - | - |
| 1778026269 | 13.33° C | 37% | 0 hPa | 0 mm | 0 m/s | - | - |
| 1778025969 | 12.78° C | 37% | 0 hPa | 0 mm | 0.89 m/s, 35° | - | - |
| 1778025669 | 12.22° C | 40% | 0 hPa | 0 mm | 0.89 m/s, 45° | - | - |
| 1778025369 | 12.22° C | 44% | 0 hPa | 0 mm | 0 m/s | - | - |
* Rain latest hour (hover to see other rain measurements)
** Current wind speed in m/s (hover to see current wind gust speed)